Date,TemperatureHighF,TemperatureAvgF,TemperatureLowF,DewpointHighF,DewpointAvgF,DewpointLowF,HumidityHigh,HumidityAvg,HumidityLow,PressureMaxIn,PressureMinIn,WindSpeedMaxMPH,WindSpeedAvgMPH,GustSpeedMaxMPH,PrecipitationSumIn
2012-1-1,70.3,64.6,53.2,99.5,93.1,79.9,0,0,100,30.61,30.18,27,9,27,0.00
2012-1-2,60.9,53.3,47.0,88.9,80.3,73.3,0,0,100,30.76,30.60,22,8,22,0.00
2012-1-3,55.9,47.5,39.5,83.3,73.8,64.7,0,0,100,30.73,30.49,14,3,14,0.00
2012-1-4,75.1,61.1,44.2,99.9,88.5,70.2,0,0,100,30.49,30.31,18,2,18,0.00
2012-1-5,74.9,64.1,54.8,99.9,91.9,81.9,0,0,100,30.40,30.24,12,1,12,0.00
2012-1-6,74.4,67.1,62.4,99.9,95.3,90.6,0,0,100,30.24,30.09,22,3,22,0.01
2012-1-7,78.1,67.7,61.8,99.9,95.3,89.9,0,0,100,30.15,30.04,16,2,16,0.24
2012-1-8,77.9,70.6,64.5,99.9,98.1,92.9,0,0,100,30.20,30.09,15,2,15,0.01
2012-1-9,72.0,70.0,67.9,99.9,98.9,96.8,0,0,100,30.14,29.96,24,6,24,2.19
2012-1-10,68.3,59.7,53.8,97.2,87.6,80.7,0,0,100,30.06,29.94,18,4,18,0.02
2012-1-11,72.7,60.9,51.4,99.9,88.7,78.2,0,0,100,29.99,29.82,19,4,19,0.00
2012-1-12,62.9,53.2,44.6,90.9,80.3,70.5,0,0,100,30.39,29.88,33,11,33,0.00
2012-1-13,58.0,47.5,37.8,85.6,73.8,63.0,0,0,100,30.48,30.37,16,2,16,0.00
2012-1-14,66.8,52.6,41.1,95.3,79.6,66.7,0,0,100,30.55,30.40,14,2,14,0.00
2012-1-15,68.3,57.9,44.2,97.2,85.5,70.2,0,0,100,30.52,30.37,16,3,16,0.00
2012-1-16,76.7,70.6,64.2,99.9,98.3,92.6,0,0,100,30.37,30.17,24,4,24,0.00
2012-1-17,76.8,71.1,57.3,99.9,98.5,84.7,0,0,100,30.30,30.11,22,6,22,0.12
2012-1-18,66.3,55.7,46.4,95.0,83.1,72.6,0,0,100,30.40,30.21,23,5,23,0.00
2012-1-19,73.5,65.4,52.6,99.9,93.7,79.6,0,0,100,30.21,30.02,23,4,23,0.00
2012-1-20,77.6,72.4,67.9,99.9,99.3,96.8,0,0,100,30.06,29.96,26,7,26,0.00
2012-1-21,81.1,73.5,69.9,99.9,99.8,99.0,0,0,100,30.07,29.97,21,4,21,0.00
2012-1-22,77.9,73.5,70.1,99.9,99.9,99.0,0,0,100,30.01,29.89,26,6,26,0.00
2012-1-23,73.9,68.1,59.9,99.9,96.3,87.8,0,0,100,30.18,30.00,15,4,15,0.01
2012-1-24,68.8,63.0,58.0,97.3,91.3,85.4,0,0,100,30.17,30.04,20,7,20,0.03
2012-1-25,75.3,68.5,58.9,99.9,96.6,86.6,0,0,100,30.04,29.81,40,6,40,2.72
2012-1-26,65.3,58.5,52.6,93.8,86.2,79.4,0,0,100,30.17,29.91,24,4,24,0.00
2012-1-27,67.6,57.4,47.0,96.4,84.9,73.3,0,0,100,30.24,30.10,16,2,16,0.01
2012-1-28,68.6,60.6,52.8,97.3,88.5,79.4,0,0,100,30.52,30.20,28,7,28,0.01
2012-1-29,66.1,55.6,46.0,94.7,82.9,72.2,0,0,100,30.59,30.45,13,3,13,0.00
2012-1-30,68.6,59.6,49.5,97.6,87.5,76.0,0,0,100,30.49,30.31,15,3,15,0.00
2012-1-31,75.1,67.7,60.7,99.9,95.7,88.7,0,0,100,30.31,30.17,17,3,17,1.27
2012-2-1,77.2,73.8,69.4,99.9,99.8,98.5,0,0,100,30.23,30.13,14,0,14,0.11
2012-2-2,77.9,72.1,67.6,99.9,99.3,96.2,0,0,100,30.23,30.12,15,3,15,0.36
2012-2-3,81.8,75.6,71.5,99.9,99.9,99.9,0,0,100,30.18,30.05,21,4,21,0.42
2012-2-4,76.0,70.4,63.2,99.9,97.8,91.5,0,0,100,30.27,30.07,21,4,21,1.30
2012-2-5,63.4,56.7,54.2,91.5,84.2,81.2,0,0,100,30.43,30.27,26,12,26,0.04
2012-2-6,63.9,56.7,49.9,92.3,84.1,76.5,0,0,100,30.43,30.27,19,6,19,0.00
2012-2-7,66.0,60.0,54.1,94.6,87.8,81.2,0,0,100,30.38,30.24,15,4,17,0.00
2012-2-8,66.6,60.2,54.1,95.3,88.1,81.2,0,0,100,30.50,30.36,18,8,19,0.00
2012-2-9,63.9,57.4,50.8,92.3,84.9,77.5,0,0,100,30.44,30.27,13,3,13,0.09
2012-2-10,62.0,57.8,54.1,90.1,85.4,81.2,0,0,100,30.38,30.16,18,4,18,1.06
2012-2-11,58.3,51.7,45.1,86.0,78.5,71.2,0,0,100,30.67,30.34,26,12,26,0.00
2012-2-12,54.2,48.1,40.3,81.2,74.6,65.8,0,0,100,30.70,30.40,20,6,20,0.00
2012-2-13,68.1,58.6,50.5,97.0,86.4,77.2,0,0,100,30.41,29.94,20,6,20,0.63
2012-2-14,65.0,59.0,55.4,93.3,86.8,82.7,0,0,100,30.14,30.04,12,2,12,0.00
2012-2-15,74.2,69.2,59.5,99.9,97.1,87.3,0,0,100,30.12,29.97,21,4,21,0.18
2012-2-16,71.5,66.8,62.6,99.9,95.4,90.8,0,0,100,30.26,30.12,14,4,14,0.01
2012-2-17,69.8,64.9,60.4,98.7,93.4,88.3,0,0,100,30.21,30.04,14,4,14,0.26
2012-2-18,66.8,63.3,59.8,95.5,91.6,87.7,0,0,100,30.04,29.80,29,5,29,2.37
2012-2-19,66.3,59.2,54.5,95.0,86.9,81.7,0,0,100,30.22,29.99,29,7,29,0.00
2012-2-20,65.5,60.7,55.1,93.8,88.7,82.4,0,0,100,30.26,30.17,19,4,19,0.00
2012-2-21,77.2,67.5,60.2,99.9,94.9,88.1,0,0,100,30.28,30.11,14,1,14,0.00
2012-2-22,82.8,72.6,66.6,99.9,98.5,95.3,0,0,100,30.11,29.81,24,6,24,0.00
2012-2-23,80.3,74.5,72.1,99.9,99.9,99.9,0,0,100,29.83,29.69,32,11,32,0.00
2012-2-24,75.1,66.2,59.2,99.9,94.0,86.8,0,0,100,30.43,29.75,36,11,36,0.00
2012-2-25,60.7,56.9,50.8,88.7,84.4,77.5,0,0,100,30.51,30.37,20,4,20,0.00
2012-2-26,70.6,60.2,49.1,99.6,88.1,75.6,0,0,100,30.38,30.20,15,3,15,0.00
2012-2-27,72.7,66.1,60.7,99.9,94.6,88.7,0,0,100,30.37,30.26,17,5,17,0.06
2012-2-28,76.0,70.2,64.5,99.9,97.4,92.9,0,0,100,30.31,30.12,19,4,19,0.00
2012-2-29,83.8,76.0,72.7,99.9,99.9,99.9,0,0,100,30.17,30.04,20,4,20,0.00
2012-3-1,82.4,76.3,73.0,99.9,99.9,99.9,0,0,100,30.07,29.87,23,5,23,0.00
2012-3-2,82.2,77.2,71.6,99.9,99.9,99.9,0,0,100,29.90,29.79,25,8,25,0.00
2012-3-3,71.1,64.5,56.2,99.9,92.9,83.6,0,0,100,30.28,29.82,27,9,27,0.11
2012-3-4,75.3,62.4,49.5,99.9,89.7,76.1,0,0,100,30.36,30.23,23,3,23,0.00
2012-3-5,79.9,66.0,53.9,99.9,92.6,81.0,0,0,100,30.48,30.36,13,1,13,0.00
2012-3-6,76.7,69.1,62.0,99.9,96.9,89.9,0,0,100,30.43,30.26,23,5,23,0.00
2012-3-7,80.1,73.9,69.1,99.9,99.2,43.4,39,0,39,30.26,30.13,24,8,24,0.00
2012-3-8,80.3,75.4,73.0,99.9,99.9,99.9,0,0,100,30.18,30.10,24,5,24,0.00
2012-3-9,73.3,56.1,50.4,99.9,83.3,76.9,0,0,100,30.44,30.15,28,11,28,2.20
2012-3-10,65.3,59.0,51.9,93.8,86.7,78.8,0,0,100,30.39,30.22,17,6,17,0.01
2012-3-11,74.2,68.4,60.7,99.9,96.7,88.7,0,0,100,30.22,30.08,32,6,32,0.68
2012-3-12,76.8,71.8,67.4,99.9,99.1,96.2,0,0,100,30.24,30.11,18,2,18,0.06
2012-3-13,79.4,73.6,70.4,99.9,99.9,99.6,0,0,100,30.27,30.19,14,2,14,0.00
2012-3-14,81.1,74.8,71.1,99.9,99.9,99.9,0,0,100,30.29,30.20,18,3,18,0.00
2012-3-15,80.3,74.7,71.1,99.9,99.9,99.9,0,0,100,30.31,30.21,16,2,16,0.00
2012-3-16,79.9,74.5,70.4,99.9,99.9,99.6,0,0,100,30.28,30.17,17,2,17,0.00
2012-3-17,79.6,75.4,72.3,99.9,99.9,99.9,0,0,100,30.21,30.13,21,4,21,0.00
2012-3-18,79.8,75.8,73.2,99.9,99.9,99.9,0,0,100,30.19,30.09,22,5,22,0.00
2012-3-19,79.6,75.7,73.7,99.9,99.9,99.9,0,0,100,30.09,29.88,30,9,30,0.00
2012-3-20,75.3,67.9,59.3,99.9,94.9,87.1,0,0,100,29.95,29.80,27,10,27,3.68
2012-3-21,70.4,63.4,58.6,99.6,91.7,86.3,0,0,100,30.08,29.88,19,3,19,0.04
2012-3-22,77.6,69.1,61.3,99.9,95.9,89.3,0,0,100,30.08,29.98,17,2,17,0.00
2012-3-23,85.9,70.9,59.3,99.9,95.7,87.0,0,0,100,30.13,30.00,12,1,12,0.01
2012-3-24,86.3,74.0,63.9,99.9,97.8,92.3,0,0,100,30.12,30.00,13,2,13,0.01
2012-3-25,86.1,75.2,65.6,99.9,98.6,94.2,0,0,100,30.15,30.03,11,1,11,0.01
2012-3-26,87.4,75.8,66.4,99.9,99.1,95.0,0,0,100,30.17,30.04,10,1,10,0.01
2012-3-27,83.2,74.2,66.8,99.9,98.9,95.5,0,0,100,30.18,30.09,15,1,15,0.01
2012-3-28,82.0,74.1,65.6,99.9,99.1,94.2,0,0,100,30.18,30.05,16,1,16,0.00
2012-3-29,79.8,71.8,67.1,99.9,98.7,95.9,0,0,100,30.08,29.95,18,2,18,0.47
2012-3-30,80.3,72.4,66.4,99.9,98.6,95.1,0,0,100,30.01,29.89,17,2,17,0.00
2012-3-31,83.4,74.6,66.4,99.9,99.2,95.1,0,0,100,30.03,29.92,15,2,15,0.01
2012-4-1,82.4,76.2,71.6,99.9,99.9,99.9,0,0,100,29.97,29.85,17,2,17,0.00
2012-4-2,79.8,74.5,65.8,99.9,99.4,94.4,0,0,100,29.92,29.76,27,4,27,0.61
2012-4-3,82.8,77.9,75.6,99.9,99.9,99.9,0,0,100,29.98,29.84,24,6,24,0.01
2012-4-4,77.6,72.8,66.1,99.9,98.8,94.7,0,0,100,30.01,29.83,27,3,27,0.00
2012-4-5,89.3,78.3,66.8,99.9,99.5,95.5,0,0,100,29.95,29.81,20,2,20,0.01
2012-4-6,85.7,75.7,66.9,99.9,99.3,95.6,0,0,100,30.12,29.95,12,2,12,0.00
2012-4-7,85.5,76.3,67.1,99.9,99.5,95.9,0,0,100,30.26,30.12,12,2,12,0.00
2012-4-8,85.3,76.6,68.4,99.9,99.7,97.3,0,0,100,30.33,30.20,12,2,12,0.00
2012-4-9,85.1,76.6,70.3,99.9,99.9,99.5,0,0,100,30.26,30.14,12,2,12,0.00
2012-4-10,85.1,75.8,67.6,99.9,99.4,96.4,0,0,100,30.22,30.10,13,1,13,0.00
2012-4-11,85.3,75.0,66.9,99.9,98.8,95.6,0,0,100,30.20,30.10,15,1,15,0.00
2012-4-12,77.2,71.6,66.4,99.9,99.0,95.0,0,0,100,30.20,30.10,16,3,16,0.19
2012-4-13,83.0,76.7,72.1,99.9,99.9,99.9,0,0,100,30.14,30.05,23,2,23,0.00
2012-4-14,82.0,77.5,74.9,99.9,99.9,99.9,0,0,100,30.10,30.00,25,7,25,0.00
2012-4-15,81.8,78.1,75.4,99.9,99.9,99.9,0,0,100,30.03,29.93,27,5,27,0.00
2012-4-16,76.8,68.6,62.4,99.9,96.1,90.6,0,0,100,30.21,29.99,20,6,20,1.80
2012-4-17,75.6,68.1,62.7,99.9,96.2,90.9,0,0,100,30.27,30.15,17,7,17,0.00
2012-4-18,78.6,66.7,56.3,99.9,93.5,83.7,0,0,100,30.29,30.09,15,4,15,0.00
2012-4-19,80.7,69.7,59.0,99.9,95.9,86.8,0,0,100,30.13,29.94,13,2,13,0.00
2012-4-20,79.6,69.9,63.1,99.9,96.6,90.9,0,0,100,29.96,29.83,31,3,31,0.71
2012-4-21,72.0,62.0,56.2,99.9,90.1,83.6,0,0,100,30.03,29.93,27,13,27,0.01
2012-4-22,83.0,77.8,71.1,99.9,99.9,99.9,0,0,100,30.15,30.02,22,6,22,0.00
2012-4-23,75.3,65.6,54.7,99.9,93.5,81.9,0,0,100,30.28,30.12,19,6,19,0.00
2012-4-24,78.3,67.4,54.1,99.9,93.8,81.2,0,0,100,30.19,30.07,17,2,17,0.00
2012-4-25,81.6,72.9,64.7,99.9,98.1,93.2,0,0,100,30.09,30.00,24,6,24,0.00
2012-4-26,80.7,75.0,70.6,99.9,99.9,99.8,0,0,100,30.08,29.99,22,6,22,0.00
2012-4-27,80.7,75.3,71.5,99.9,99.9,99.9,0,0,100,30.05,29.98,23,4,23,0.00
2012-4-28,81.8,76.2,72.3,99.9,99.9,99.9,0,0,100,30.05,29.98,17,3,17,0.00
2012-4-29,83.0,77.4,73.0,99.9,99.9,99.9,0,0,100,30.12,30.03,18,5,18,0.00
2012-4-30,84.0,78.1,74.6,99.9,99.9,99.9,0,0,100,30.16,30.05,15,3,15,0.00
2012-5-1,84.3,77.3,70.6,99.9,99.9,99.8,0,0,100,30.10,29.98,15,2,15,0.00
2012-5-2,89.0,79.1,70.9,99.9,99.9,99.9,0,0,100,30.01,29.89,13,1,13,0.00
2012-5-3,87.8,79.3,71.8,99.9,99.9,99.9,0,0,100,30.08,29.98,14,1,14,0.00
2012-5-4,86.3,79.1,72.3,99.9,99.9,99.9,0,0,100,30.09,30.01,16,2,16,0.00
2012-5-5,86.3,79.3,71.8,99.9,99.9,99.9,0,0,100,30.06,29.95,16,2,16,0.01
2012-5-6,87.2,79.1,73.5,99.9,99.9,99.9,0,0,100,30.02,29.94,16,2,16,0.00
2012-5-7,87.2,78.9,71.3,99.9,99.9,99.9,0,0,100,29.99,29.87,18,2,18,0.00
2012-5-8,85.9,75.3,68.6,99.9,99.7,97.6,0,0,100,30.01,29.93,20,3,20,0.36
2012-5-9,82.2,75.6,69.9,99.9,99.9,99.0,0,0,100,30.06,29.95,15,4,15,0.01
2012-5-10,81.6,75.3,67.3,99.9,99.3,96.1,0,0,100,30.05,29.92,17,4,17,0.00
2012-5-11,77.4,72.4,65.6,99.9,99.2,94.2,0,0,100,30.04,29.89,32,7,32,1.49
2012-5-12,80.1,71.9,66.4,99.9,98.8,95.1,0,0,100,30.17,30.00,17,3,17,0.66
2012-5-13,79.4,72.4,66.9,99.9,98.9,95.6,0,0,100,30.22,30.09,17,5,17,0.00
2012-5-14,83.8,74.7,66.0,99.9,98.7,94.4,0,0,100,30.17,30.02,13,2,13,0.00
2012-5-15,79.2,72.7,68.4,99.9,99.3,97.3,0,0,100,30.14,30.06,17,4,17,0.00
2012-5-16,83.4,72.6,66.0,99.9,98.3,94.6,0,0,100,30.14,30.01,21,3,21,0.34
2012-5-17,88.0,76.9,67.1,99.9,99.0,95.9,0,0,100,30.10,29.98,13,2,13,0.01
2012-5-18,87.8,77.4,68.4,99.9,99.5,97.2,0,0,100,30.07,29.98,14,1,14,0.00
2012-5-19,87.2,77.9,67.6,99.9,99.6,96.4,0,0,100,30.09,30.00,14,2,14,0.00
2012-5-20,88.0,78.6,69.1,99.9,99.8,98.1,0,0,100,30.18,30.07,13,2,13,0.00
2012-5-21,91.0,80.7,72.5,99.9,99.9,99.9,0,0,100,30.19,30.04,14,2,14,0.00
2012-5-22,92.5,80.0,72.3,99.9,99.9,99.9,0,0,100,30.10,29.93,15,2,15,0.00
2012-5-23,85.3,79.2,73.7,99.9,99.9,99.9,0,0,100,29.94,29.83,21,4,21,0.00
2012-5-24,86.1,80.5,76.3,99.9,99.9,99.9,0,0,100,29.91,29.81,23,4,23,0.00
2012-5-25,88.6,82.2,78.1,99.9,99.9,99.9,0,0,100,30.07,29.89,17,4,17,0.00
2012-5-26,79.6,78.3,76.7,99.9,99.9,99.9,0,0,100,30.09,30.08,4,0,4,0.00
2012-5-27,89.5,80.8,72.8,99.9,99.9,99.9,0,0,100,30.10,29.99,17,2,17,0.00
2012-5-28,89.7,80.6,71.6,99.9,99.9,99.9,0,0,100,30.04,29.93,15,2,15,0.00
2012-5-29,91.4,81.6,73.0,99.9,99.9,99.9,0,0,100,30.00,29.92,19,4,19,0.00
2012-5-30,91.8,81.9,75.4,99.9,99.9,99.9,0,0,100,30.02,29.85,18,2,18,0.00
2012-5-31,86.1,79.0,68.4,99.9,99.8,97.2,0,0,100,29.99,29.82,28,2,28,0.62
2012-6-1,89.0,78.9,71.1,99.9,99.9,99.9,0,0,100,30.06,29.93,16,2,16,0.00
2012-6-2,89.7,80.0,69.6,99.9,99.8,98.7,0,0,100,30.07,29.96,14,2,14,0.00
2012-6-3,88.8,81.8,75.3,99.9,99.9,99.9,0,0,100,30.06,29.98,20,3,20,0.00
2012-6-4,92.1,83.0,76.7,99.9,99.9,99.9,0,0,100,30.01,29.88,18,2,18,0.00
2012-6-5,94.3,83.1,75.1,99.9,99.9,99.9,0,0,100,29.92,29.77,16,2,16,0.00
2012-6-6,95.6,80.8,73.2,99.9,99.9,99.9,0,0,100,29.98,29.81,30,2,30,0.09
2012-6-7,91.4,79.4,71.3,99.9,99.9,99.9,0,0,100,30.01,29.87,20,4,20,0.05
2012-6-8,90.5,78.3,71.6,99.9,99.9,99.9,0,0,100,30.01,29.86,31,4,31,0.54
2012-6-9,89.0,79.3,71.1,99.9,99.9,99.9,0,0,100,29.97,29.80,13,3,13,0.00
2012-6-10,92.7,83.5,75.1,99.9,99.9,99.9,0,0,100,29.95,29.84,16,2,16,0.00
2012-6-11,90.7,85.0,80.3,99.9,99.9,99.9,0,0,100,30.07,29.95,23,4,23,0.00
2012-6-12,90.1,82.3,74.6,99.9,99.9,99.9,0,0,100,30.15,30.04,18,2,18,0.05
2012-6-13,89.3,80.6,71.8,99.9,99.9,99.9,0,0,100,30.10,29.97,14,2,26,0.77
2012-6-14,88.2,81.2,76.0,99.9,99.9,99.9,0,0,100,30.08,29.98,17,2,17,0.04
2012-6-15,90.1,81.9,75.8,99.9,99.9,99.9,0,0,100,30.09,29.99,15,2,15,0.01
2012-6-16,88.8,81.1,73.7,99.9,99.9,99.9,0,0,100,30.14,30.06,18,3,18,0.00
2012-6-17,89.5,81.4,74.4,99.9,99.9,99.9,0,0,100,30.11,29.93,15,3,15,0.00
2012-6-18,86.5,78.9,73.3,99.9,99.9,99.9,0,0,100,30.01,29.90,18,2,18,1.99
2012-6-19,85.3,78.6,74.7,99.9,99.9,99.9,0,0,100,30.07,29.96,23,3,23,0.69
2012-6-20,87.4,81.7,77.6,99.9,99.9,99.9,0,0,100,30.07,30.02,16,4,16,0.00
2012-6-21,89.3,82.1,74.6,99.9,99.9,99.9,0,0,100,30.07,29.96,16,2,16,0.00
2012-6-22,91.6,83.8,75.3,99.9,99.9,99.9,0,0,100,30.01,29.87,19,4,19,0.00
2012-6-23,94.0,84.7,75.3,99.9,99.9,99.9,0,0,100,29.95,29.87,14,2,14,0.00
2012-6-24,97.3,87.9,79.0,99.9,99.9,99.9,0,0,100,29.99,29.87,17,4,17,0.00
2012-6-25,98.7,88.3,79.0,99.9,99.9,99.9,0,0,100,29.93,29.78,16,3,16,0.00
2012-6-26,100.2,89.6,80.1,99.9,99.9,99.9,0,0,100,29.85,29.74,9,1,9,0.00
2012-6-27,98.7,87.9,77.9,99.9,99.9,99.9,0,0,100,30.04,29.85,14,2,14,0.00
2012-6-28,94.5,86.8,81.1,99.9,99.9,99.9,0,0,100,30.13,30.03,15,2,15,0.00
2012-6-29,93.6,85.2,77.6,99.9,99.9,99.9,0,0,100,30.10,29.97,18,2,18,0.00
2012-6-30,87.4,80.5,75.6,99.9,99.9,99.9,0,0,100,30.03,29.97,14,1,14,0.10
2012-7-1,89.0,82.8,74.0,99.9,99.9,99.9,0,0,100,30.11,30.01,16,2,16,0.10
2012-7-2,92.9,84.9,78.5,99.9,99.9,99.9,0,0,100,30.18,30.07,13,1,13,0.00
2012-7-3,91.2,82.9,76.5,99.9,99.9,99.9,0,0,100,30.16,30.02,14,1,14,0.00
2012-7-4,92.1,84.3,77.4,99.9,99.9,99.9,0,0,100,30.12,30.03,17,2,17,0.00
2012-7-5,92.1,84.5,77.2,99.9,99.9,99.9,0,0,100,30.13,30.03,14,2,14,0.00
2012-7-6,93.8,84.7,77.0,99.9,99.9,99.9,0,0,100,30.12,30.00,19,1,19,0.00
2012-7-7,85.1,80.9,77.4,99.9,99.9,99.9,0,0,100,30.15,30.04,13,0,13,0.21
2012-7-8,83.4,79.3,74.9,99.9,99.9,99.9,0,0,100,30.16,30.04,16,1,16,0.21
2012-7-9,86.1,78.5,73.3,99.9,99.9,99.9,0,0,100,30.11,29.99,22,1,22,1.50
2012-7-10,79.9,76.4,73.0,99.9,99.9,99.9,0,0,100,30.06,29.96,28,2,28,0.69
2012-7-11,82.4,77.3,72.8,99.9,99.9,99.9,0,0,100,30.09,30.00,22,3,22,0.24
2012-7-12,81.1,77.7,70.9,99.9,99.9,99.9,0,0,100,30.11,29.98,18,2,18,1.35
2012-7-13,82.8,78.1,71.1,99.9,99.9,99.9,0,0,100,30.15,30.00,28,2,28,2.97
2012-7-14,95.4,85.6,79.4,99.9,99.9,99.9,0,0,100,30.12,30.00,14,1,14,0.03
2012-7-15,94.5,88.3,83.4,99.9,99.9,99.9,0,0,100,30.13,30.01,19,1,19,0.00
2012-7-16,95.6,88.5,83.8,99.9,99.9,99.9,0,0,100,30.12,30.01,13,1,13,0.02
2012-7-17,96.8,89.1,82.4,99.9,99.9,99.9,0,0,100,30.08,29.99,14,1,14,0.00
2012-7-18,96.6,89.2,83.2,99.9,99.9,99.9,0,0,100,30.12,30.02,14,1,14,0.00
2012-7-19,92.7,86.9,81.8,99.9,99.9,99.9,0,0,100,30.18,30.08,15,2,15,0.00
2012-7-20,95.9,86.8,76.5,99.9,99.9,99.9,0,0,100,30.16,30.01,24,3,24,0.00
2012-7-21,94.7,82.6,76.5,99.9,99.9,99.9,0,0,100,30.14,30.00,26,3,26,0.00
2012-7-22,91.8,83.9,79.8,99.9,99.9,99.9,0,0,100,30.16,30.02,14,1,14,0.00
2012-7-23,91.2,83.4,75.4,99.9,99.9,99.9,0,0,100,30.21,30.12,15,1,15,0.76
2012-7-24,91.4,84.2,79.2,99.9,99.9,99.9,0,0,100,30.18,30.05,15,1,15,0.16
2012-7-25,91.8,84.9,78.8,99.9,99.9,99.9,0,0,100,30.10,30.00,21,3,21,0.07
2012-7-26,92.3,85.0,80.9,99.9,99.9,99.9,0,0,100,30.08,29.97,20,3,20,0.03
2012-7-27,93.8,85.5,79.2,99.9,99.9,99.9,0,0,100,30.14,30.05,14,2,14,0.00
2012-7-28,94.0,82.8,74.9,99.9,99.9,99.9,0,0,100,30.19,30.08,32,2,32,0.27
2012-7-29,93.4,83.9,75.1,99.9,99.9,99.9,0,0,100,30.16,30.02,14,2,14,0.00
2012-7-30,95.4,85.6,78.3,99.9,99.9,99.9,0,0,100,30.13,29.98,14,2,14,0.00
2012-7-31,95.4,85.8,79.6,99.9,99.9,99.9,0,0,100,30.10,29.99,15,3,15,0.00
2012-8-1,95.1,85.8,79.6,99.9,99.9,99.9,0,0,100,30.09,29.95,17,3,17,0.00
2012-8-2,94.3,86.1,79.8,99.9,99.9,99.9,0,0,100,30.03,29.93,16,3,16,0.00
2012-8-3,94.0,86.4,80.3,99.9,99.9,99.9,0,0,100,30.02,29.94,15,2,15,0.00
2012-8-4,94.0,86.2,79.4,99.9,99.9,99.9,0,0,100,30.10,29.99,13,1,13,0.00
2012-8-5,93.4,83.8,77.2,99.9,99.9,99.9,0,0,100,30.17,30.08,21,2,21,0.86
2012-8-6,92.7,81.7,75.4,99.9,99.9,99.9,0,0,100,30.16,30.04,22,2,22,0.11
2012-8-7,93.2,83.9,75.6,99.9,99.9,99.9,0,0,100,30.07,29.95,11,1,11,0.00
2012-8-8,91.0,83.3,78.8,99.9,99.9,99.9,0,0,100,30.07,29.99,15,1,15,0.57
2012-8-9,94.5,85.1,78.8,99.9,99.9,99.9,0,0,100,30.06,29.94,20,3,20,0.00
2012-8-10,94.3,85.1,79.8,99.9,99.9,99.9,0,0,100,30.02,29.87,23,4,23,0.00
2012-8-11,95.4,86.2,80.1,99.9,99.9,99.9,0,0,100,30.02,29.93,14,2,14,0.00
2012-8-12,93.6,86.2,81.1,99.9,99.9,99.9,0,0,100,30.07,29.98,18,2,18,0.00
2012-8-13,94.7,86.4,80.5,99.9,99.9,99.9,0,0,100,30.09,29.98,18,4,18,0.00
2012-8-14,94.9,85.8,79.9,99.9,99.9,99.9,0,0,100,30.08,29.96,19,4,19,0.00
2012-8-15,93.4,85.5,78.5,99.9,99.9,99.9,0,0,100,30.06,29.96,18,3,18,0.04
2012-8-16,94.9,87.1,80.7,99.9,99.9,99.9,0,0,100,30.10,30.01,18,2,18,0.00
2012-8-17,92.1,85.2,80.1,99.9,99.9,99.9,0,0,100,30.10,29.96,20,2,20,0.09
2012-8-18,88.4,79.7,75.1,99.9,99.9,99.9,0,0,100,30.02,29.94,18,2,18,1.05
2012-8-19,87.2,79.1,74.2,99.9,99.9,99.9,0,0,100,30.04,29.92,14,2,14,0.27
2012-8-20,91.6,82.2,74.4,99.9,99.9,99.9,0,0,100,29.99,29.90,20,1,20,0.01
2012-8-21,88.0,80.3,72.8,99.9,99.9,99.9,0,0,100,30.08,29.97,15,3,15,0.00
2012-8-22,84.7,78.8,75.1,99.9,99.9,99.9,0,0,100,30.14,30.06,15,3,15,0.45
2012-8-23,86.3,78.9,74.6,99.9,99.9,99.9,0,0,100,30.12,30.04,23,4,23,0.93
2012-8-24,83.0,78.8,74.7,99.9,99.9,99.9,0,0,100,30.07,29.98,18,2,18,1.43
2012-8-25,82.4,78.3,74.0,99.9,99.9,99.9,0,0,100,30.10,29.99,16,2,16,0.89
2012-8-26,91.4,82.8,76.5,99.9,99.9,99.9,0,0,100,30.13,30.01,13,2,13,0.00
2012-8-27,92.1,83.9,76.3,99.9,99.9,99.9,0,0,100,30.11,29.92,14,4,14,0.00
2012-8-28,94.9,85.2,77.6,99.9,99.9,99.9,0,0,100,29.97,29.76,28,8,28,0.00
2012-8-29,89.7,84.2,79.6,99.9,99.9,99.9,0,0,100,29.79,29.62,33,14,33,0.00
2012-8-30,89.9,83.0,79.2,99.9,99.9,99.9,0,0,100,29.89,29.62,24,5,24,0.00
2012-8-31,91.4,85.9,79.4,99.9,99.9,99.9,0,0,100,30.11,29.89,23,5,23,0.04
2012-9-1,90.1,81.4,76.0,99.9,99.9,99.9,0,0,100,30.19,30.10,23,2,23,0.35
2012-9-2,91.6,83.8,77.9,99.9,99.9,99.9,0,0,100,30.14,30.02,20,3,20,0.00
2012-9-3,94.0,84.6,77.7,99.9,99.9,99.9,0,0,100,30.09,29.99,16,3,16,0.00
2012-9-4,93.8,84.3,77.7,99.9,99.9,99.9,0,0,100,30.06,29.93,16,3,16,0.00
2012-9-5,94.5,84.2,76.5,99.9,99.9,99.9,0,0,100,30.01,29.90,16,3,16,0.00
2012-9-6,95.6,85.0,77.6,99.9,99.9,99.9,0,0,100,30.02,29.90,13,2,13,0.00
2012-9-7,95.1,84.8,77.9,99.9,99.9,99.9,0,0,100,29.99,29.85,13,1,13,0.00
2012-9-8,87.4,80.2,73.5,99.9,99.9,99.9,0,0,100,30.10,29.90,24,6,24,0.00
2012-9-9,84.5,75.0,65.6,99.9,99.1,94.2,0,0,100,30.18,30.06,17,4,17,0.00
2012-9-10,85.7,75.3,64.2,99.9,98.9,92.6,0,0,100,30.19,30.08,13,2,13,0.00
2012-9-11,85.5,77.2,67.8,99.9,99.5,96.7,0,0,100,30.18,30.09,15,3,15,0.00
2012-9-12,86.5,80.0,74.2,99.9,99.9,99.9,0,0,100,30.18,30.06,15,2,15,0.18
2012-9-13,85.9,76.9,71.8,99.9,99.9,99.9,0,0,100,30.23,30.12,19,2,19,1.36
2012-9-14,88.4,79.4,72.8,99.9,99.9,99.9,0,0,100,30.22,30.10,14,3,14,0.00
2012-9-15,89.9,79.1,72.5,99.9,99.9,99.9,0,0,100,30.21,30.09,10,2,10,0.00
2012-9-16,88.6,79.9,72.7,99.9,99.9,99.9,0,0,100,30.13,29.96,14,2,14,0.00
2012-9-17,82.0,75.6,72.5,99.9,99.9,99.9,0,0,100,30.01,29.82,18,6,18,0.36
2012-9-18,85.1,76.6,68.4,99.9,99.6,97.3,0,0,100,30.09,29.93,20,5,20,0.00
2012-9-19,81.6,73.7,67.6,99.9,99.3,96.4,0,0,100,30.20,30.09,15,4,15,0.00
2012-9-20,83.0,72.1,62.3,99.9,97.3,90.2,0,0,100,30.18,30.05,10,1,10,0.00
2012-9-21,87.0,75.1,62.4,99.9,97.8,90.6,0,0,100,30.11,30.00,13,2,13,0.00
2012-9-22,89.3,79.0,69.9,99.9,99.9,99.0,0,0,100,30.18,30.06,11,1,11,0.00
2012-9-23,91.0,80.2,73.0,99.9,99.9,99.9,0,0,100,30.25,30.14,11,1,11,0.01
2012-9-24,89.7,79.9,71.6,99.9,99.9,99.9,0,0,100,30.23,30.10,11,1,11,0.00
2012-9-25,89.3,81.3,75.4,99.9,99.9,99.9,0,0,100,30.15,30.06,17,2,17,0.00
2012-9-26,88.4,81.2,75.3,99.9,99.9,99.9,0,0,100,30.15,30.05,17,2,17,0.00
2012-9-27,87.8,79.6,72.3,99.9,99.9,99.9,0,0,100,30.17,30.06,12,2,12,0.00
2012-9-28,89.5,80.7,73.0,99.9,99.9,99.9,0,0,100,30.12,30.00,12,2,12,0.00
2012-9-29,82.8,79.4,75.4,99.9,99.9,99.9,0,0,100,30.03,29.84,15,1,15,1.45
2012-9-30,81.1,75.1,66.0,99.9,99.1,94.6,0,0,100,29.84,29.66,26,7,26,0.47
2012-10-1,82.6,72.1,63.2,99.9,97.3,91.5,0,0,100,29.89,29.78,25,6,25,0.00
2012-10-2,83.4,71.6,62.1,99.9,97.0,90.2,0,0,100,30.05,29.89,16,2,16,0.01
2012-10-3,86.1,73.6,62.3,99.9,97.3,90.5,0,0,100,30.16,30.04,13,1,13,0.00
2012-10-4,86.7,77.0,66.8,99.9,99.3,95.5,0,0,100,30.24,30.15,14,2,14,0.00
2012-10-5,87.4,76.8,68.1,99.9,99.6,97.0,0,0,100,30.21,30.06,12,1,12,0.01
2012-10-6,85.7,74.4,61.8,99.9,98.9,89.6,0,0,100,30.17,30.00,22,4,22,0.00
2012-10-7,70.1,60.1,53.5,99.2,88.0,80.6,0,0,100,30.29,30.14,24,12,24,0.00
2012-10-8,70.1,61.6,56.7,99.2,89.7,84.2,0,0,100,30.32,30.17,16,6,16,0.00
2012-10-9,80.7,68.0,54.5,99.9,93.8,81.7,0,0,100,30.22,30.06,14,3,14,0.00
2012-10-10,86.1,77.3,68.6,99.9,99.7,97.6,0,0,100,30.21,30.10,13,2,13,0.00
2012-10-11,85.3,77.8,71.8,99.9,99.9,99.9,0,0,100,30.27,30.18,16,3,16,0.01
2012-10-12,85.3,77.2,70.8,99.9,99.9,99.8,0,0,100,30.29,30.20,16,2,16,0.00
2012-10-13,86.3,80.5,76.0,99.9,99.9,99.9,0,0,100,30.23,30.08,20,3,20,0.00
2012-10-14,87.6,80.1,74.9,99.9,99.9,99.9,0,0,100,30.18,30.04,16,3,16,0.00
2012-10-15,81.2,74.1,67.3,99.9,99.3,96.1,0,0,100,30.15,30.02,15,4,15,0.00
2012-10-16,79.8,69.1,61.8,99.9,95.7,89.9,0,0,100,30.09,29.91,15,1,15,0.24
2012-10-17,86.5,75.8,63.4,99.9,98.1,91.7,0,0,100,29.92,29.73,27,4,27,0.00
2012-10-18,78.8,73.1,67.1,99.9,99.4,95.9,0,0,100,30.05,29.80,23,6,23,1.13
2012-10-19,81.1,68.8,56.0,99.9,94.7,83.4,0,0,100,30.09,29.98,15,2,15,0.00
2012-10-20,83.0,71.0,56.0,99.9,94.9,83.4,0,0,100,30.07,29.97,16,2,16,0.00
2012-10-21,85.3,78.1,73.7,99.9,99.9,99.9,0,0,100,30.10,30.00,18,2,18,0.00
2012-10-22,83.8,76.7,72.1,99.9,99.9,99.9,0,0,100,30.13,30.06,17,4,17,0.00
2012-10-23,84.9,76.0,69.1,99.9,99.8,98.1,0,0,100,30.12,30.01,12,2,12,0.00
2012-10-24,84.7,76.8,70.6,99.9,99.9,99.6,0,0,100,30.12,30.01,16,3,16,0.01
2012-10-25,83.8,78.1,74.4,99.9,99.9,99.9,0,0,100,30.02,29.95,17,3,17,0.00
2012-10-26,74.9,64.7,53.2,99.9,92.7,80.2,0,0,100,30.27,30.01,27,9,27,0.00
2012-10-27,63.4,55.8,50.4,91.5,83.2,77.1,0,0,100,30.30,30.13,25,12,25,0.00
2012-10-28,66.0,55.4,46.8,94.6,82.7,73.1,0,0,100,30.33,30.20,20,8,20,0.00
2012-10-29,68.4,56.2,44.6,97.3,83.6,70.6,0,0,100,30.39,30.21,20,4,20,0.00
2012-10-30,73.9,59.7,45.8,99.9,87.3,71.9,0,0,100,30.26,30.09,15,1,15,0.00
2012-10-31,82.2,68.7,57.6,99.9,94.2,85.2,0,0,100,30.14,30.01,16,2,16,0.00
2012-11-1,86.3,72.4,62.1,99.9,97.2,90.2,0,0,100,30.16,30.03,18,2,18,0.01
2012-11-2,85.1,74.2,65.3,99.9,98.5,93.8,0,0,100,30.15,30.06,16,2,16,0.01
2012-11-3,84.5,75.9,68.1,99.9,99.8,96.8,0,0,100,30.19,30.09,16,2,16,0.00
2012-11-4,81.8,72.2,67.1,99.9,98.8,95.9,0,0,100,30.20,30.07,19,1,19,0.04
2012-11-5,83.6,72.6,65.6,99.9,98.5,94.1,0,0,100,30.16,29.98,13,2,13,0.01
2012-11-6,74.6,64.9,57.2,99.9,92.9,84.7,0,0,100,30.22,30.09,17,5,17,0.00
2012-11-7,80.1,66.4,54.5,99.9,92.7,81.7,0,0,100,30.26,30.13,12,2,15,0.00
2012-11-8,75.3,65.6,57.3,99.9,93.3,84.8,0,0,100,30.32,30.21,13,4,13,0.00
2012-11-9,79.2,70.7,61.2,99.9,97.1,89.2,0,0,100,30.26,30.17,17,3,17,0.00
2012-11-10,82.6,73.8,65.5,99.9,98.7,94.1,0,0,100,30.22,30.09,22,4,22,0.00
2012-11-11,81.4,77.1,73.7,99.9,99.9,99.9,0,0,100,30.16,30.03,25,4,25,0.00
2012-11-12,72.5,60.4,48.8,98.5,88.4,75.3,0,0,100,30.55,30.16,28,12,28,0.00
2012-11-13,61.5,52.0,42.3,89.3,78.8,68.0,0,0,100,30.60,30.42,19,7,19,0.00
2012-11-14,65.2,54.0,46.0,93.7,81.1,72.2,0,0,100,30.51,30.35,20,4,20,0.00
2012-11-15,66.6,53.0,40.9,95.3,80.0,66.4,0,0,100,30.44,30.29,15,2,15,0.00
2012-11-16,67.6,54.5,42.9,96.4,81.8,68.7,0,0,100,30.45,30.33,15,4,15,0.00
2012-11-17,69.6,54.9,43.6,98.7,82.1,69.5,0,0,100,30.48,30.36,11,2,11,0.00
2012-11-18,69.4,56.4,45.7,98.5,83.9,71.8,0,0,100,30.43,30.31,11,1,11,0.00
2012-11-19,72.0,58.6,46.5,99.9,86.3,72.7,0,0,100,30.38,30.25,9,1,9,0.00
2012-11-20,77.9,62.5,50.1,99.9,89.3,76.8,0,0,100,30.33,30.19,6,1,9,0.01
2012-11-21,81.4,66.9,56.5,99.9,92.9,83.9,0,0,100,30.35,30.22,13,2,13,0.01
2012-11-22,77.9,66.1,54.2,99.9,93.0,81.4,0,0,100,30.31,30.20,15,1,15,0.01
2012-11-23,77.6,66.0,60.1,99.9,93.7,88.0,0,0,100,30.42,30.26,22,4,22,0.02
2012-11-24,62.6,54.0,45.8,90.8,81.2,71.9,0,0,100,30.49,30.30,19,6,19,0.00
2012-11-25,72.8,60.0,44.2,99.9,87.7,70.2,0,0,100,30.31,30.09,15,3,15,0.00
2012-11-26,81.8,73.5,68.1,99.9,99.5,97.0,0,0,100,30.15,30.04,25,4,25,0.01
2012-11-27,70.3,59.7,50.1,99.5,87.6,76.8,0,0,100,30.45,30.10,22,7,22,0.10
2012-11-28,66.8,53.7,42.6,95.5,80.8,68.4,0,0,100,30.56,30.38,14,3,14,0.01
2012-11-29,66.9,56.2,44.2,95.6,83.7,70.0,0,0,100,30.45,30.28,14,2,14,0.00
2012-11-30,73.3,65.9,55.9,99.9,94.3,83.1,0,0,100,30.32,30.23,14,4,14,0.01
2012-12-1,79.6,71.0,65.3,99.9,98.1,93.8,0,0,100,30.28,30.18,15,3,15,0.00
2012-12-2,81.6,73.4,66.1,99.9,99.3,94.7,0,0,100,30.29,30.18,16,2,16,0.00
2012-12-3,80.5,74.1,70.6,99.9,99.9,99.8,0,0,100,30.21,30.12,17,3,17,0.00
2012-12-4,81.4,70.7,64.3,99.9,98.0,92.7,0,0,100,30.25,30.14,26,2,26,2.04
2012-12-5,69.6,65.2,62.1,98.7,93.7,90.2,0,0,100,30.28,30.14,13,3,13,0.07
2012-12-6,71.8,63.6,59.2,99.9,91.9,86.8,0,0,100,30.15,30.00,11,2,11,0.00
2012-12-7,78.5,70.7,62.9,99.9,97.3,91.1,0,0,100,30.03,29.92,15,2,15,0.00
2012-12-8,79.9,73.6,69.1,99.9,99.8,98.1,0,0,100,30.02,29.95,13,1,13,1.39
2012-12-9,81.2,75.5,69.8,99.9,99.9,98.7,0,0,100,30.03,29.90,23,4,23,0.05
2012-12-10,76.0,57.0,45.8,99.9,83.8,71.9,0,0,100,30.22,29.87,31,12,31,0.67
2012-12-11,56.6,48.6,40.2,84.1,75.1,65.7,0,0,100,30.34,30.19,18,6,18,0.00
2012-12-12,61.5,50.8,41.8,89.6,77.6,67.5,0,0,100,30.46,30.34,13,3,13,0.00
2012-12-13,63.9,52.0,40.3,92.3,78.9,65.8,0,0,100,30.48,30.33,14,2,14,0.00
2012-12-14,68.1,61.4,51.4,97.0,89.4,77.9,0,0,100,30.36,30.08,19,6,19,0.00
2012-12-15,79.9,74.2,68.1,99.9,99.7,97.0,0,0,100,30.08,29.97,24,4,24,0.00
2012-12-16,75.3,69.6,65.5,99.9,97.4,94.1,0,0,100,29.99,29.84,23,3,23,1.12
2012-12-17,74.2,65.6,54.7,99.9,93.6,81.9,0,0,100,30.05,29.90,17,2,17,0.00
2012-12-18,79.9,68.0,52.9,99.9,94.2,79.9,0,0,100,30.06,29.98,21,3,21,0.00
2012-12-19,81.8,76.3,71.5,99.9,99.9,99.9,0,0,100,30.00,29.85,26,5,26,0.00
2012-12-20,76.1,59.0,45.1,99.9,85.9,70.9,0,0,100,30.55,29.87,34,11,34,0.07
2012-12-21,65.2,51.4,38.8,93.7,78.2,64.1,0,0,100,30.63,30.45,12,2,12,0.00
2012-12-22,67.8,57.1,42.3,96.4,84.6,68.0,0,0,100,30.51,30.25,15,2,15,0.00
2012-12-23,75.1,70.4,64.7,99.9,98.6,93.2,0,0,100,30.25,30.01,26,5,26,0.00
2012-12-24,79.8,70.5,65.8,99.9,98.1,94.4,0,0,100,30.05,29.87,14,2,14,0.00
2012-12-25,76.3,65.0,41.3,99.9,92.5,66.8,0,0,100,30.11,29.64,39,8,39,0.24
2012-12-26,51.0,43.5,39.8,77.5,69.4,65.2,0,0,100,30.35,30.11,23,6,23,0.00
2012-12-27,56.6,48.3,37.6,84.1,74.7,62.8,0,0,100,30.29,30.01,19,5,19,0.00
2012-12-28,71.8,60.6,49.1,99.9,88.5,75.6,0,0,100,30.24,29.84,27,8,27,0.76
2012-12-29,53.9,48.1,41.5,81.0,74.5,67.1,0,0,100,30.57,30.23,27,10,27,0.00
2012-12-30,54.1,46.9,37.9,81.2,73.2,63.1,0,0,100,30.64,30.41,16,4,16,0.00
2012-12-31,70.6,59.0,51.1,99.6,86.8,77.8,0,0,100,30.42,30.05,18,5,18,0.14
2013-1-1,72.8,60.5,53.1,99.9,88.3,80.1,0,0,100,30.30,29.99,22,10,22,2.20